createdAt,value
2019-03-23T00:03:11.581Z,20.10
2019-03-23T00:07:17.936Z,24.00
2019-03-23T00:11:23.605Z,18.85
2019-03-23T00:15:29.020Z,20.20
2019-03-23T00:19:34.292Z,19.85
2019-03-23T00:23:39.957Z,18.80
2019-03-23T00:27:45.218Z,17.12
2019-03-23T00:31:50.753Z,19.48
2019-03-23T00:35:56.012Z,18.75
2019-03-23T00:40:01.281Z,17.55
2019-03-23T00:44:07.812Z,15.55
2019-03-23T00:48:13.084Z,19.40
2019-03-23T00:52:18.626Z,19.52
2019-03-23T00:56:24.224Z,24.60
2019-03-23T01:00:29.504Z,18.65
2019-03-23T01:04:35.303Z,17.55
2019-03-23T01:08:43.517Z,17.95
2019-03-23T01:12:48.997Z,16.67
2019-03-23T01:16:54.441Z,21.27
2019-03-23T01:20:59.925Z,20.57
2019-03-23T01:25:06.040Z,20.05
2019-03-23T01:29:11.304Z,20.20
2019-03-23T01:33:16.643Z,18.80
2019-03-23T01:37:22.892Z,17.42
2019-03-23T01:41:29.281Z,16.70
2019-03-23T01:45:34.632Z,17.70
2019-03-23T01:49:39.969Z,20.52
2019-03-23T01:53:45.444Z,24.25
2019-03-23T01:58:03.100Z,17.82
2019-03-23T02:02:08.608Z,18.48
2019-03-23T02:06:13.867Z,20.12
2019-03-23T02:10:19.284Z,17.55
2019-03-23T02:14:24.717Z,17.02
2019-03-23T02:18:30.060Z,18.20
2019-03-23T02:22:35.625Z,15.50
2019-03-23T02:26:40.895Z,18.75
2019-03-23T02:30:46.257Z,18.23
2019-03-23T02:34:51.590Z,18.45
2019-03-23T02:38:56.915Z,17.60
2019-03-23T02:43:02.510Z,17.95
2019-03-23T02:47:07.852Z,17.10
2019-03-23T02:51:13.421Z,21.85
2019-03-23T02:55:18.774Z,18.23
2019-03-23T02:59:24.021Z,16.80
2019-03-23T03:03:29.358Z,15.20
2019-03-23T03:07:41.826Z,18.52
2019-03-23T03:11:41.934Z,14.78
2019-03-23T03:15:47.518Z,17.67
2019-03-23T03:19:52.869Z,17.50
2019-03-23T03:23:58.348Z,14.83
2019-03-23T03:28:03.609Z,18.87
2019-03-23T03:32:09.283Z,15.90
2019-03-23T03:36:14.623Z,14.43
2019-03-23T03:40:19.881Z,16.60
2019-03-23T03:44:25.251Z,15.38
2019-03-23T03:48:30.581Z,15.28
2019-03-23T03:52:38.561Z,17.48
2019-03-23T03:56:43.840Z,17.10
2019-03-23T04:00:49.228Z,17.27
2019-03-23T04:04:54.651Z,16.45
2019-03-23T04:08:59.918Z,20.40
2019-03-23T04:13:05.695Z,17.57
2019-03-23T04:17:12.201Z,17.75
2019-03-23T04:21:17.723Z,15.60
2019-03-23T04:25:25.078Z,15.80
2019-03-23T04:29:30.311Z,12.95
2019-03-23T04:33:35.649Z,12.55
2019-03-23T04:37:40.904Z,16.67
2019-03-23T04:41:48.435Z,24.55
2019-03-23T04:45:53.873Z,20.62
2019-03-23T04:49:59.257Z,20.00
2019-03-23T04:54:04.783Z,17.00
2019-03-23T04:58:10.060Z,15.78
2019-03-23T05:02:15.330Z,18.90
2019-03-23T05:06:20.585Z,15.88
2019-03-23T05:10:25.906Z,17.35
2019-03-23T05:14:31.314Z,15.38
2019-03-23T05:18:36.871Z,18.82
2019-03-23T05:22:42.367Z,17.48
2019-03-23T05:26:47.623Z,14.28
2019-03-23T05:30:52.890Z,13.55
2019-03-23T05:34:58.129Z,14.95
2019-03-23T05:39:04.563Z,13.38
2019-03-23T05:43:11.238Z,14.65
2019-03-23T05:47:16.506Z,15.10
2019-03-23T05:51:21.917Z,14.63
2019-03-23T05:55:27.247Z,15.38
2019-03-23T05:59:33.576Z,16.80
2019-03-23T06:03:38.907Z,17.27
2019-03-23T06:07:44.272Z,14.20
2019-03-23T06:11:49.979Z,15.65
2019-03-23T06:15:55.371Z,13.28
2019-03-23T06:20:00.709Z,15.35
2019-03-23T06:24:07.339Z,13.53
2019-03-23T06:28:12.733Z,13.22
2019-03-23T06:32:18.000Z,15.55
2019-03-23T06:36:23.337Z,15.13
2019-03-23T06:40:28.589Z,13.13
2019-03-23T06:44:34.104Z,13.08
2019-03-23T06:48:39.373Z,14.03
2019-03-23T06:52:44.728Z,15.28
2019-03-23T06:56:50.065Z,14.03
2019-03-23T07:00:55.446Z,13.72
2019-03-23T07:05:00.719Z,14.60
2019-03-23T07:09:15.750Z,12.88
2019-03-23T07:13:15.528Z,14.30
2019-03-23T07:17:21.161Z,14.33
2019-03-23T07:21:26.505Z,13.20
2019-03-23T07:25:31.768Z,12.35
2019-03-23T07:29:37.037Z,12.37
2019-03-23T07:33:42.597Z,13.08
2019-03-23T07:37:48.185Z,16.48
2019-03-23T07:41:54.798Z,12.23
2019-03-23T07:46:00.713Z,14.80
2019-03-23T07:50:07.687Z,13.35
2019-03-23T07:54:13.309Z,12.70
2019-03-23T07:58:18.762Z,12.40
2019-03-23T08:02:25.541Z,14.93
2019-03-23T08:06:31.057Z,12.80
2019-03-23T08:10:37.913Z,14.28
2019-03-23T08:14:43.600Z,13.78
2019-03-23T08:18:48.874Z,13.48
2019-03-23T08:22:55.792Z,21.52
2019-03-23T08:27:02.221Z,16.67
2019-03-23T08:31:07.573Z,20.10
2019-03-23T08:35:12.916Z,22.87
2019-03-23T08:39:18.195Z,21.37
2019-03-23T08:43:24.197Z,21.35
2019-03-23T08:47:29.458Z,21.93
2019-03-23T08:51:35.297Z,21.90
2019-03-23T08:55:42.415Z,19.23
2019-03-23T08:59:47.791Z,22.93
2019-03-23T09:03:53.387Z,23.18
2019-03-23T09:07:58.773Z,21.02
2019-03-23T09:12:04.643Z,22.05
2019-03-23T09:16:10.103Z,24.65
2019-03-23T09:20:15.543Z,26.55
2019-03-23T09:24:20.928Z,25.72
2019-03-23T09:28:26.195Z,29.12
2019-03-23T09:32:31.884Z,25.95
2019-03-23T09:36:37.510Z,29.07
2019-03-23T09:40:42.848Z,29.85
2019-03-23T09:44:48.624Z,30.10
2019-03-23T09:48:53.895Z,33.13
2019-03-23T09:52:59.645Z,34.48
2019-03-23T09:57:05.294Z,33.63
2019-03-23T10:01:10.659Z,34.88
2019-03-23T10:05:16.008Z,33.10
2019-03-23T10:09:21.278Z,35.65
2019-03-23T10:13:26.706Z,37.15
2019-03-23T10:17:31.976Z,36.45
2019-03-23T10:21:37.306Z,36.60
2019-03-23T10:25:42.800Z,33.65
2019-03-23T10:29:48.328Z,36.93
2019-03-23T10:33:53.673Z,36.10
2019-03-23T10:37:59.109Z,36.77
2019-03-23T10:42:04.736Z,35.70
2019-03-23T10:46:10.186Z,42.35
2019-03-23T10:50:15.520Z,42.83
2019-03-23T10:54:20.982Z,38.38
2019-03-23T10:58:26.360Z,46.23
2019-03-23T11:02:31.898Z,40.48
2019-03-23T11:06:37.243Z,38.50
2019-03-23T11:10:42.753Z,34.67
2019-03-23T11:14:48.232Z,40.48
2019-03-23T11:18:53.586Z,40.80
2019-03-23T11:22:59.208Z,43.95
2019-03-23T11:27:04.656Z,44.93
2019-03-23T11:31:10.122Z,43.15
2019-03-23T11:35:15.614Z,41.77
2019-03-23T11:39:21.392Z,39.67
2019-03-23T11:43:26.729Z,37.63
2019-03-23T11:47:33.363Z,42.90
2019-03-23T11:51:39.159Z,38.00
2019-03-23T11:55:46.060Z,35.48
2019-03-23T11:59:54.277Z,39.73
2019-03-23T12:04:00.328Z,37.50
2019-03-23T12:08:05.933Z,40.78
2019-03-23T12:12:11.431Z,36.75
2019-03-23T12:16:16.695Z,30.88
2019-03-23T12:20:22.046Z,31.62
2019-03-23T12:24:27.398Z,37.88
2019-03-23T12:28:32.898Z,34.10
2019-03-23T12:32:38.737Z,34.67
2019-03-23T12:36:44.073Z,32.63
2019-03-23T12:40:49.432Z,33.13
2019-03-23T12:44:55.038Z,36.70
2019-03-23T12:49:00.355Z,35.78
2019-03-23T12:53:06.026Z,36.33
2019-03-23T12:57:11.454Z,36.83
2019-03-23T13:01:16.794Z,41.73
2019-03-23T13:05:22.160Z,41.40
2019-03-23T13:09:27.532Z,40.40
2019-03-23T13:13:32.924Z,35.73
2019-03-23T13:17:38.293Z,35.85
2019-03-23T13:21:43.843Z,39.67
2019-03-23T13:25:49.186Z,41.83
2019-03-23T13:29:54.611Z,38.42
2019-03-23T13:34:00.118Z,37.50
2019-03-23T13:38:05.535Z,38.70
2019-03-23T13:42:11.082Z,39.48
2019-03-23T13:46:16.383Z,37.88
2019-03-23T13:50:29.136Z,45.43
2019-03-23T13:54:34.782Z,41.77
2019-03-23T13:58:40.297Z,43.98
2019-03-23T14:02:46.265Z,41.00
2019-03-23T14:06:51.604Z,38.58
2019-03-23T14:10:57.068Z,41.68
2019-03-23T14:15:02.585Z,42.40
2019-03-23T14:19:08.400Z,47.98
2019-03-23T14:23:14.121Z,40.88
2019-03-23T14:27:19.531Z,40.75
2019-03-23T14:31:25.248Z,44.77
2019-03-23T14:35:30.522Z,41.05
2019-03-23T14:39:35.863Z,36.48
2019-03-23T14:43:41.204Z,35.75
2019-03-23T14:47:46.646Z,43.78
2019-03-23T14:51:52.182Z,40.60
2019-03-23T14:55:57.569Z,38.90
2019-03-23T15:00:02.882Z,39.55
2019-03-23T15:04:08.447Z,40.70
2019-03-23T15:08:15.009Z,36.95
2019-03-23T15:12:20.587Z,36.17
2019-03-23T15:16:25.933Z,37.00
2019-03-23T15:20:31.635Z,37.93
2019-03-23T15:24:39.251Z,40.98
2019-03-23T15:28:44.680Z,45.17
2019-03-23T15:32:50.713Z,45.55
2019-03-23T15:36:56.004Z,51.55
2019-03-23T15:41:03.205Z,44.40
2019-03-23T15:45:09.513Z,49.00
2019-03-23T15:49:14.862Z,47.48
2019-03-23T15:53:20.566Z,49.33
2019-03-23T15:57:25.864Z,45.58
2019-03-23T16:01:32.305Z,51.60
2019-03-23T16:05:37.644Z,54.70
2019-03-23T16:09:43.029Z,53.20
2019-03-23T16:13:48.421Z,49.38
2019-03-23T16:17:53.760Z,49.08
2019-03-23T16:21:59.318Z,48.35
2019-03-23T16:26:04.715Z,47.73
2019-03-23T16:30:11.236Z,45.35
2019-03-23T16:34:17.807Z,44.27
2019-03-23T16:38:23.097Z,45.65
2019-03-23T16:42:30.123Z,44.88
2019-03-23T16:46:35.448Z,52.55
2019-03-23T16:50:40.793Z,45.12
2019-03-23T16:54:46.426Z,50.60
2019-03-23T16:58:51.850Z,48.70
2019-03-23T17:02:57.708Z,43.65
2019-03-23T17:07:02.971Z,52.58
2019-03-23T17:11:08.603Z,54.08
2019-03-23T17:15:14.029Z,52.35
2019-03-23T17:19:19.371Z,51.45
2019-03-23T17:23:25.257Z,49.20
2019-03-23T17:27:30.668Z,61.75
2019-03-23T17:31:36.169Z,53.68
2019-03-23T17:35:41.432Z,51.88
2019-03-23T17:39:46.810Z,54.95
2019-03-23T17:43:52.112Z,56.77
2019-03-23T17:47:57.464Z,56.08
2019-03-23T17:52:03.260Z,53.48
2019-03-23T17:56:08.629Z,54.20
2019-03-23T18:00:14.752Z,55.90
2019-03-23T18:04:20.444Z,56.10
2019-03-23T18:08:26.929Z,58.48
2019-03-23T18:12:32.564Z,58.58
2019-03-23T18:16:37.840Z,53.10
2019-03-23T18:20:43.194Z,55.60
2019-03-23T18:24:48.540Z,52.67
2019-03-23T18:28:53.882Z,55.52
2019-03-23T18:32:59.480Z,54.85
2019-03-23T18:37:04.912Z,71.77
2019-03-23T18:41:10.395Z,66.55
2019-03-23T18:45:15.812Z,62.85
2019-03-23T18:49:21.074Z,60.05
2019-03-23T18:53:26.513Z,58.20
2019-03-23T18:57:31.842Z,57.85
2019-03-23T19:01:38.032Z,55.95
2019-03-23T19:05:43.367Z,59.03
2019-03-23T19:09:48.668Z,60.30
2019-03-23T19:13:53.928Z,61.53
2019-03-23T19:17:59.367Z,55.38
2019-03-23T19:22:07.336Z,56.08
2019-03-23T19:26:12.707Z,63.55
2019-03-23T19:30:20.977Z,63.28
2019-03-23T19:34:26.535Z,65.50
2019-03-23T19:38:31.852Z,67.40
2019-03-23T19:42:37.367Z,60.92
2019-03-23T19:46:42.644Z,91.53
2019-03-23T19:50:47.912Z,65.50
2019-03-23T19:54:53.258Z,66.62
2019-03-23T19:58:58.612Z,84.92
2019-03-23T20:03:04.145Z,67.00
2019-03-23T20:07:09.565Z,64.27
2019-03-23T20:11:14.846Z,64.60
2019-03-23T20:15:20.227Z,55.35
2019-03-23T20:19:25.550Z,67.10
2019-03-23T20:23:31.127Z,58.60
2019-03-23T20:27:36.700Z,56.70
2019-03-23T20:31:42.362Z,56.13
2019-03-23T20:35:48.775Z,56.48
2019-03-23T20:39:54.110Z,57.85
2019-03-23T20:44:09.088Z,52.93
2019-03-23T20:48:06.661Z,53.90
2019-03-23T20:52:13.319Z,50.03
2019-03-23T20:56:18.696Z,52.62
2019-03-23T21:00:24.124Z,49.40
2019-03-23T21:04:30.153Z,44.93
2019-03-23T21:08:35.500Z,49.27
2019-03-23T21:12:41.141Z,50.67
2019-03-23T21:16:46.558Z,40.90
2019-03-23T21:20:51.969Z,52.30
2019-03-23T21:24:58.493Z,46.02
2019-03-23T21:29:03.906Z,43.00
2019-03-23T21:33:09.304Z,46.85
2019-03-23T21:37:14.661Z,46.50
2019-03-23T21:41:20.242Z,42.83
2019-03-23T21:45:25.558Z,44.35
2019-03-23T21:49:33.220Z,40.88
2019-03-23T21:53:42.057Z,65.52
2019-03-23T21:57:50.827Z,44.03
2019-03-23T22:01:56.574Z,41.45
2019-03-23T22:06:01.847Z,36.35
2019-03-23T22:10:08.853Z,37.50
2019-03-23T22:14:14.115Z,43.65
2019-03-23T22:18:19.389Z,41.42
2019-03-23T22:22:24.952Z,43.08
2019-03-23T22:26:30.214Z,37.48
2019-03-23T22:30:35.547Z,41.50
2019-03-23T22:34:40.888Z,37.55
2019-03-23T22:38:46.139Z,36.77
2019-03-23T22:42:51.495Z,48.40
2019-03-23T22:46:56.812Z,38.38
2019-03-23T22:51:02.392Z,39.18
2019-03-23T22:55:08.515Z,37.42
2019-03-23T22:59:16.549Z,36.08
2019-03-23T23:03:21.833Z,39.15
2019-03-23T23:07:27.244Z,37.78
2019-03-23T23:11:35.173Z,41.50
2019-03-23T23:15:40.599Z,36.95
2019-03-23T23:19:45.935Z,45.48
2019-03-23T23:23:51.637Z,42.98
2019-03-23T23:27:56.964Z,38.38
2019-03-23T23:32:03.470Z,37.67
2019-03-23T23:36:08.901Z,41.63
2019-03-23T23:40:14.671Z,41.65
2019-03-23T23:44:20.072Z,38.45
2019-03-23T23:48:25.347Z,36.53
2019-03-23T23:52:30.667Z,34.45
2019-03-23T23:56:36.263Z,40.95
